createdAt,value
2023-01-18T00:00:15.161Z,98056.94
2023-01-18T00:02:47.054Z,98060.31
2023-01-18T00:05:16.482Z,98055.56
2023-01-18T00:07:47.133Z,98051.94
2023-01-18T00:10:17.668Z,98049.47
2023-01-18T00:12:52.171Z,98044.53
2023-01-18T00:15:23.302Z,98043.75
2023-01-18T00:17:53.947Z,98034.50
2023-01-18T00:20:24.554Z,98036.53
2023-01-18T00:22:58.446Z,98032.94
2023-01-18T00:25:29.646Z,98026.63
2023-01-18T00:27:57.748Z,98025.81
2023-01-18T00:30:27.742Z,98031.25
2023-01-18T00:33:02.150Z,98042.03
2023-01-18T00:35:29.802Z,98047.22
2023-01-18T00:38:00.405Z,98050.94
2023-01-18T00:40:30.741Z,98055.34
2023-01-18T00:43:16.502Z,98056.56
2023-01-18T00:45:46.721Z,98058.81
2023-01-18T00:48:24.772Z,98067.72
2023-01-18T00:50:55.391Z,98070.19
2023-01-18T00:53:25.672Z,98072.31
2023-01-18T00:56:04.033Z,98077.38
2023-01-18T00:58:37.344Z,98077.16
2023-01-18T01:01:10.183Z,98074.25
2023-01-18T01:03:57.166Z,98075.34
2023-01-18T01:06:44.215Z,98075.34
2023-01-18T01:09:23.501Z,98080.78
2023-01-18T01:12:13.259Z,98082.34
2023-01-18T01:15:01.795Z,98100.22
2023-01-18T01:17:50.841Z,98109.81
2023-01-18T01:20:42.785Z,98106.22
2023-01-18T01:23:37.725Z,98110.69
2023-01-18T01:26:06.715Z,98109.91
2023-01-18T01:28:35.857Z,98116.56
2023-01-18T01:31:05.197Z,98114.09
2023-01-18T01:33:34.051Z,98109.13
2023-01-18T01:36:14.387Z,98106.78
2023-01-18T01:38:47.997Z,98105.63
2023-01-18T01:41:26.885Z,98104.84
2023-01-18T01:44:00.066Z,98105.63
2023-01-18T01:46:46.119Z,98117.34
2023-01-18T01:49:21.620Z,98121.63
2023-01-18T01:52:11.591Z,98133.78
2023-01-18T01:55:25.857Z,98134.47
2023-01-18T01:58:00.242Z,98135.59
2023-01-18T02:00:31.265Z,98140.47
2023-01-18T02:03:10.669Z,98141.81
2023-01-18T02:05:44.422Z,98147.31
2023-01-18T02:08:13.124Z,98142.28
2023-01-18T02:10:46.773Z,98150.00
2023-01-18T02:13:18.973Z,98136.84
2023-01-18T02:15:58.523Z,98139.03
2023-01-18T02:18:47.105Z,98127.28
2023-01-18T02:21:20.368Z,98111.75
2023-01-18T02:24:07.651Z,98116.94
2023-01-18T02:26:59.868Z,98105.13
2023-01-18T02:29:42.286Z,98113.78
2023-01-18T02:32:29.555Z,98117.31
2023-01-18T02:35:08.872Z,98119.34
2023-01-18T02:38:12.938Z,98125.41
2023-01-18T02:41:14.329Z,98123.38
2023-01-18T02:44:04.003Z,98131.16
2023-01-18T02:46:35.846Z,98140.41
2023-01-18T02:49:20.874Z,98152.34
2023-01-18T02:52:00.028Z,98150.53
2023-01-18T02:54:32.438Z,98142.22
2023-01-18T02:57:03.509Z,98143.09
2023-01-18T02:59:43.020Z,98147.72
2023-01-18T03:02:20.920Z,98147.59
2023-01-18T03:04:56.300Z,98154.28
2023-01-18T03:07:40.180Z,98157.88
2023-01-18T03:10:10.774Z,98160.59
2023-01-18T03:12:46.848Z,98168.25
2023-01-18T03:15:30.090Z,98161.72
2023-01-18T03:18:07.016Z,98166.59
2023-01-18T03:20:41.608Z,98172.34
2023-01-18T03:23:37.982Z,98182.59
2023-01-18T03:26:10.595Z,98181.56
2023-01-18T03:28:59.247Z,98184.88
2023-01-18T03:31:57.486Z,98186.91
2023-01-18T03:34:49.679Z,98188.72
2023-01-18T03:37:31.204Z,98199.09
2023-01-18T03:40:20.948Z,98193.88
2023-01-18T03:43:14.865Z,98190.47
2023-01-18T03:45:47.463Z,98200.03
2023-01-18T03:48:26.819Z,98210.16
2023-01-18T03:51:06.635Z,98217.66
2023-01-18T03:53:40.338Z,98215.41
2023-01-18T03:56:13.766Z,98218.78
2023-01-18T03:58:43.552Z,98211.31
2023-01-18T04:01:12.107Z,98217.75
2023-01-18T04:03:42.613Z,98216.81
2023-01-18T04:06:13.713Z,98213.28
2023-01-18T04:08:43.632Z,98218.97
2023-01-18T04:11:14.072Z,98225.94
2023-01-18T04:13:47.107Z,98224.81
2023-01-18T04:16:20.838Z,98236.84
2023-01-18T04:18:48.502Z,98230.44
2023-01-18T04:21:22.598Z,98239.25
2023-01-18T04:23:50.633Z,98231.56
2023-01-18T04:26:19.671Z,98229.22
2023-01-18T04:28:50.175Z,98225.69
2023-01-18T04:31:20.725Z,98224.22
2023-01-18T04:33:51.699Z,98228.59
2023-01-18T04:36:24.859Z,98238.28
2023-01-18T04:38:54.313Z,98231.50
2023-01-18T04:41:25.185Z,98232.94
2023-01-18T04:43:58.419Z,98231.81
2023-01-18T04:46:31.153Z,98244.28
2023-01-18T04:48:58.487Z,98241.81
2023-01-18T04:51:31.317Z,98254.56
2023-01-18T04:53:59.445Z,98250.25
2023-01-18T04:56:27.402Z,98248.25
2023-01-18T04:59:01.006Z,98260.63
2023-01-18T05:01:29.645Z,98263.19
2023-01-18T05:03:57.095Z,98270.31
2023-01-18T05:06:24.644Z,98273.28
2023-01-18T05:08:54.713Z,98279.03
2023-01-18T05:11:24.744Z,98280.53
2023-01-18T05:14:01.038Z,98284.91
2023-01-18T05:16:31.177Z,98277.34
2023-01-18T05:19:04.361Z,98279.47
2023-01-18T05:21:37.005Z,98282.47
2023-01-18T05:24:12.902Z,98287.56
2023-01-18T05:26:43.142Z,98282.00
2023-01-18T05:29:16.676Z,98280.44
2023-01-18T05:31:44.281Z,98292.06
2023-01-18T05:34:14.755Z,98293.25
2023-01-18T05:36:49.386Z,98291.69
2023-01-18T05:39:19.661Z,98284.31
2023-01-18T05:41:47.269Z,98281.50
2023-01-18T05:44:16.030Z,98289.94
2023-01-18T05:46:51.132Z,98298.81
2023-01-18T05:49:24.456Z,98307.25
2023-01-18T05:51:52.857Z,98302.84
2023-01-18T05:54:21.636Z,98315.34
2023-01-18T05:56:51.902Z,98326.94
2023-01-18T05:59:22.375Z,98345.44
2023-01-18T06:01:49.946Z,98352.28
2023-01-18T06:04:20.541Z,98355.09
2023-01-18T06:06:50.680Z,98367.13
2023-01-18T06:09:23.613Z,98370.41
2023-01-18T06:11:54.132Z,98368.84
2023-01-18T06:14:27.437Z,98371.19
2023-01-18T06:17:01.696Z,98376.91
2023-01-18T06:19:32.044Z,98375.66
2023-01-18T06:22:04.570Z,98380.41
2023-01-18T06:24:38.102Z,98378.06
2023-01-18T06:27:11.743Z,98387.75
2023-01-18T06:29:42.316Z,98385.72
2023-01-18T06:32:10.019Z,98386.69
2023-01-18T06:34:40.791Z,98389.03
2023-01-18T06:37:16.009Z,98386.91
2023-01-18T06:39:52.117Z,98402.22
2023-01-18T06:42:24.722Z,98401.44
2023-01-18T06:44:56.606Z,98405.41
2023-01-18T06:47:29.623Z,98407.38
2023-01-18T06:50:00.801Z,98399.69
2023-01-18T06:52:28.483Z,98403.28
2023-01-18T06:54:58.924Z,98404.84
2023-01-18T06:57:29.916Z,98409.25
2023-01-18T07:00:00.993Z,98406.53
2023-01-18T07:02:34.291Z,98418.22
2023-01-18T07:05:08.406Z,98421.03
2023-01-18T07:07:38.953Z,98420.44
2023-01-18T07:10:17.392Z,98419.13
2023-01-18T07:12:48.815Z,98440.16
2023-01-18T07:15:24.263Z,98442.50
2023-01-18T07:17:56.285Z,98445.69
2023-01-18T07:20:32.444Z,98442.19
2023-01-18T07:23:05.004Z,98455.06
2023-01-18T07:25:40.917Z,98455.53
2023-01-18T07:28:13.817Z,98450.53
2023-01-18T07:30:44.203Z,98455.38
2023-01-18T07:33:14.374Z,98461.59
2023-01-18T07:35:44.230Z,98456.75
2023-01-18T07:38:15.653Z,98464.44
2023-01-18T07:40:46.929Z,98460.72
2023-01-18T07:43:18.876Z,98456.75
2023-01-18T07:45:58.161Z,98461.69
2023-01-18T07:48:38.810Z,98459.84
2023-01-18T07:51:11.215Z,98457.81
2023-01-18T07:53:40.099Z,98459.84
2023-01-18T07:56:17.863Z,98463.72
2023-01-18T07:58:52.941Z,98463.88
2023-01-18T08:01:22.804Z,98469.56
2023-01-18T08:03:51.117Z,98472.59
2023-01-18T08:06:26.376Z,98463.78
2023-01-18T08:09:02.513Z,98466.06
2023-01-18T08:11:32.483Z,98464.97
2023-01-18T08:14:05.236Z,98472.81
2023-01-18T08:16:39.239Z,98477.84
2023-01-18T08:19:10.096Z,98488.97
2023-01-18T08:21:41.200Z,98501.34
2023-01-18T08:24:16.367Z,98507.69
2023-01-18T08:26:49.327Z,98504.28
2023-01-18T08:29:22.632Z,98508.59
2023-01-18T08:32:03.925Z,98508.22
2023-01-18T08:34:40.811Z,98505.59
2023-01-18T08:37:17.531Z,98512.41
2023-01-18T08:39:56.427Z,98524.53
2023-01-18T08:42:32.395Z,98535.34
2023-01-18T08:45:07.849Z,98553.53
2023-01-18T08:47:51.921Z,98570.41
2023-01-18T08:50:28.673Z,98567.50
2023-01-18T08:53:00.768Z,98569.59
2023-01-18T08:55:38.170Z,98564.63
2023-01-18T08:58:15.028Z,98573.03
2023-01-18T09:00:55.205Z,98577.78
2023-01-18T09:03:25.464Z,98582.03
2023-01-18T09:06:10.017Z,98579.00
2023-01-18T09:08:42.068Z,98595.34
2023-01-18T09:11:13.276Z,98597.75
2023-01-18T09:14:01.007Z,98600.81
2023-01-18T09:16:40.011Z,98608.75
2023-01-18T09:19:11.497Z,98614.94
2023-01-18T09:21:51.100Z,98618.59
2023-01-18T09:24:35.418Z,98620.09
2023-01-18T09:27:08.527Z,98625.81
2023-01-18T09:29:53.032Z,98635.66
2023-01-18T09:32:35.207Z,98641.06
2023-01-18T09:35:18.397Z,98645.38
2023-01-18T09:37:57.677Z,98655.22
2023-01-18T09:40:44.204Z,98662.31
2023-01-18T09:43:33.167Z,98665.06
2023-01-18T09:46:02.074Z,98674.75
2023-01-18T09:48:45.746Z,98684.94
2023-01-18T09:51:25.679Z,98686.78
2023-01-18T09:54:25.747Z,98694.44
2023-01-18T09:57:12.308Z,98694.81
2023-01-18T09:59:59.777Z,98712.03
2023-01-18T10:02:36.175Z,98712.34
2023-01-18T10:05:17.644Z,98709.19
2023-01-18T10:08:08.055Z,98719.31
2023-01-18T10:10:41.482Z,98726.25
2023-01-18T10:13:27.570Z,98726.03
2023-01-18T10:16:03.281Z,98732.81
2023-01-18T10:18:30.919Z,98739.69
2023-01-18T10:21:05.454Z,98751.03
2023-01-18T10:23:56.411Z,98755.25
2023-01-18T10:26:32.090Z,98773.16
2023-01-18T10:29:15.834Z,98770.31
2023-01-18T10:31:47.202Z,98772.81
2023-01-18T10:34:24.576Z,98774.09
2023-01-18T10:36:58.956Z,98777.94
2023-01-18T10:39:34.294Z,98781.25
2023-01-18T10:42:07.223Z,98776.47
2023-01-18T10:44:38.904Z,98770.03
2023-01-18T10:47:09.164Z,98766.38
2023-01-18T10:49:43.421Z,98762.00
2023-01-18T10:52:28.614Z,98763.97
2023-01-18T10:55:03.184Z,98764.25
2023-01-18T10:57:34.697Z,98761.25
2023-01-18T11:00:12.635Z,98763.03
2023-01-18T11:02:47.546Z,98756.09
2023-01-18T11:05:29.436Z,98755.44
2023-01-18T11:08:31.701Z,98753.19
2023-01-18T11:11:03.935Z,98748.91
2023-01-18T11:13:35.106Z,98752.31
2023-01-18T11:16:21.033Z,98744.03
2023-01-18T11:19:01.091Z,98750.69
2023-01-18T11:21:45.650Z,98748.38
2023-01-18T11:24:30.476Z,98735.00
2023-01-18T11:27:04.702Z,98735.78
2023-01-18T11:29:39.691Z,98733.50
2023-01-18T11:32:19.734Z,98727.16
2023-01-18T11:34:52.484Z,98725.31
2023-01-18T11:37:37.531Z,98724.34
2023-01-18T11:40:37.965Z,98731.00
2023-01-18T11:43:28.148Z,98724.13
2023-01-18T11:46:10.593Z,98719.25
2023-01-18T11:49:02.235Z,98729.03
2023-01-18T11:51:45.948Z,98732.84
2023-01-18T11:54:22.874Z,98737.75
2023-01-18T11:57:03.248Z,98736.53
2023-01-18T11:59:37.393Z,98736.78
2023-01-18T12:02:30.938Z,98739.53
2023-01-18T12:05:13.586Z,98730.00
2023-01-18T12:07:55.470Z,98728.13
2023-01-18T12:10:27.281Z,98725.41
2023-01-18T12:13:04.184Z,98732.66
2023-01-18T12:15:39.673Z,98739.59
2023-01-18T12:18:16.601Z,98736.84
2023-01-18T12:21:22.456Z,98734.31
2023-01-18T12:24:04.727Z,98734.09
2023-01-18T12:26:47.588Z,98745.38
2023-01-18T12:29:38.901Z,98745.91
2023-01-18T12:32:33.635Z,98747.66
2023-01-18T12:35:23.009Z,98751.97
2023-01-18T12:38:02.707Z,98750.72
2023-01-18T12:40:39.204Z,98759.63
2023-01-18T12:43:38.709Z,98762.88
2023-01-18T12:46:11.175Z,98771.31
2023-01-18T12:49:04.807Z,98774.09
2023-01-18T12:51:36.761Z,98793.31
2023-01-18T12:54:20.826Z,98789.25
2023-01-18T12:56:52.830Z,98785.94
2023-01-18T12:59:32.057Z,98787.09
2023-01-18T13:02:54.920Z,98776.34
2023-01-18T13:05:52.600Z,98781.09
2023-01-18T13:08:44.901Z,98772.34
2023-01-18T13:11:26.396Z,98788.41
2023-01-18T13:14:17.363Z,98790.19
2023-01-18T13:17:05.791Z,98801.59
2023-01-18T13:19:47.300Z,98797.44
2023-01-18T13:22:21.385Z,98803.28
2023-01-18T13:25:09.026Z,98799.25
2023-01-18T13:27:57.973Z,98793.97
2023-01-18T13:30:26.877Z,98786.88
2023-01-18T13:32:55.705Z,98779.41
2023-01-18T13:35:33.648Z,98782.34
2023-01-18T13:38:16.554Z,98776.69
2023-01-18T13:40:59.277Z,98774.47
2023-01-18T13:43:36.321Z,98763.75
2023-01-18T13:46:25.529Z,98770.69
2023-01-18T13:49:02.576Z,98766.78
2023-01-18T13:51:42.731Z,98784.00
2023-01-18T13:54:39.826Z,98772.84
2023-01-18T13:57:10.256Z,98780.00
2023-01-18T13:59:51.189Z,98785.47
2023-01-18T14:02:36.067Z,98792.00
2023-01-18T14:05:16.452Z,98782.28
2023-01-18T14:07:52.485Z,98784.59
2023-01-18T14:10:40.533Z,98785.66
2023-01-18T14:13:19.131Z,98777.69
2023-01-18T14:16:01.592Z,98787.06
2023-01-18T14:18:40.778Z,98781.31
2023-01-18T14:21:37.816Z,98784.94
2023-01-18T14:24:20.531Z,98796.19
2023-01-18T14:26:57.790Z,98801.19
2023-01-18T14:29:44.690Z,98796.66
2023-01-18T14:32:30.061Z,98801.78
2023-01-18T14:35:26.117Z,98800.69
2023-01-18T14:38:18.202Z,98801.94
2023-01-18T14:40:57.425Z,98801.16
2023-01-18T14:43:36.649Z,98802.84
2023-01-18T14:46:14.973Z,98795.09
2023-01-18T14:48:59.023Z,98798.28
2023-01-18T14:51:33.483Z,98798.28
2023-01-18T14:54:09.003Z,98797.41
2023-01-18T14:56:48.930Z,98785.78
2023-01-18T14:59:33.535Z,98789.72
2023-01-18T15:02:19.974Z,98792.50
2023-01-18T15:04:49.628Z,98794.91
2023-01-18T15:07:38.392Z,98798.59
2023-01-18T15:10:12.623Z,98807.56
2023-01-18T15:12:49.939Z,98799.63
2023-01-18T15:15:33.905Z,98802.34
2023-01-18T15:18:11.414Z,98802.50
2023-01-18T15:21:15.057Z,98803.63
2023-01-18T15:23:47.199Z,98807.59
2023-01-18T15:26:20.716Z,98811.22
2023-01-18T15:29:08.368Z,98814.03
2023-01-18T15:31:48.215Z,98810.97
2023-01-18T15:34:21.686Z,98813.63
2023-01-18T15:37:06.319Z,98819.00
2023-01-18T15:39:59.528Z,98822.06
2023-01-18T15:42:33.117Z,98828.81
2023-01-18T15:45:09.885Z,98832.13
2023-01-18T15:48:00.363Z,98841.63
2023-01-18T15:50:44.806Z,98851.16
2023-01-18T15:53:21.979Z,98846.75
2023-01-18T15:55:51.909Z,98849.19
2023-01-18T15:58:38.145Z,98860.78
2023-01-18T16:01:27.544Z,98854.59
2023-01-18T16:04:07.961Z,98864.88
2023-01-18T16:06:45.793Z,98848.56
2023-01-18T16:09:26.537Z,98850.84
2023-01-18T16:11:59.923Z,98856.66
2023-01-18T16:14:46.313Z,98851.53
2023-01-18T16:17:27.037Z,98857.00
2023-01-18T16:20:07.999Z,98864.56
2023-01-18T16:22:46.495Z,98859.44
2023-01-18T16:25:21.390Z,98869.78
2023-01-18T16:28:02.385Z,98869.22
2023-01-18T16:30:39.180Z,98871.59
2023-01-18T16:33:23.741Z,98872.00
2023-01-18T16:36:01.608Z,98869.91
2023-01-18T16:38:33.170Z,98867.25
2023-01-18T16:41:06.770Z,98868.53
2023-01-18T16:43:47.008Z,98863.09
2023-01-18T16:46:19.960Z,98856.13
2023-01-18T16:48:53.329Z,98852.56
2023-01-18T16:51:28.679Z,98851.41
2023-01-18T16:54:06.331Z,98838.25
2023-01-18T16:56:34.757Z,98844.84
2023-01-18T16:59:15.475Z,98843.94
2023-01-18T17:01:46.988Z,98843.72
2023-01-18T17:04:15.645Z,98839.75
2023-01-18T17:06:45.145Z,98844.13
2023-01-18T17:09:28.115Z,98855.69
2023-01-18T17:11:58.474Z,98861.19
2023-01-18T17:14:29.224Z,98873.41
2023-01-18T17:16:57.146Z,98862.78
2023-01-18T17:19:25.937Z,98866.53
2023-01-18T17:21:56.692Z,98867.78
2023-01-18T17:24:25.650Z,98878.19
2023-01-18T17:26:56.288Z,98882.66
2023-01-18T17:29:32.813Z,98894.94
2023-01-18T17:32:16.864Z,98892.75
2023-01-18T17:34:52.825Z,98898.69
2023-01-18T17:37:20.561Z,98903.03
2023-01-18T17:40:10.811Z,98909.56
2023-01-18T17:42:40.995Z,98912.38
2023-01-18T17:45:14.500Z,98916.41
2023-01-18T17:47:43.424Z,98921.63
2023-01-18T17:50:15.501Z,98914.97
2023-01-18T17:52:46.025Z,98915.75
2023-01-18T17:55:14.312Z,98921.53
2023-01-18T17:57:45.022Z,98926.66
2023-01-18T18:00:18.460Z,98934.25
2023-01-18T18:02:51.618Z,98942.41
2023-01-18T18:05:20.111Z,98952.31
2023-01-18T18:07:49.774Z,98951.16
2023-01-18T18:10:17.728Z,98955.22
2023-01-18T18:12:49.939Z,98951.22
2023-01-18T18:15:25.607Z,98955.75
2023-01-18T18:17:55.552Z,98956.56
2023-01-18T18:20:25.325Z,98963.84
2023-01-18T18:22:58.103Z,98964.59
2023-01-18T18:25:31.732Z,98970.31
2023-01-18T18:28:02.507Z,98974.78
2023-01-18T18:30:33.168Z,98975.50
2023-01-18T18:33:05.738Z,98981.19
2023-01-18T18:35:35.976Z,98989.28
2023-01-18T18:38:08.505Z,98997.38
2023-01-18T18:40:38.699Z,98996.16
2023-01-18T18:43:11.316Z,98999.75
2023-01-18T18:45:39.911Z,99006.19
2023-01-18T18:48:10.212Z,99017.91
2023-01-18T18:50:43.921Z,99022.81
2023-01-18T18:53:14.027Z,99011.53
2023-01-18T18:55:41.548Z,99027.22
2023-01-18T18:58:11.794Z,99025.63
2023-01-18T19:00:43.976Z,99023.22
2023-01-18T19:03:11.676Z,99036.56
2023-01-18T19:05:42.622Z,99037.81
2023-01-18T19:08:12.785Z,99041.41
2023-01-18T19:10:40.497Z,99036.63
2023-01-18T19:13:10.712Z,99039.47
2023-01-18T19:15:49.291Z,99039.88
2023-01-18T19:18:20.112Z,99042.69
2023-01-18T19:20:50.882Z,99040.25
2023-01-18T19:23:20.907Z,99053.16
2023-01-18T19:25:51.230Z,99061.72
2023-01-18T19:28:22.105Z,99065.06
2023-01-18T19:30:52.400Z,99065.88
2023-01-18T19:33:23.141Z,99065.47
2023-01-18T19:35:53.559Z,99070.59
2023-01-18T19:38:21.429Z,99068.91
2023-01-18T19:40:51.805Z,99072.56
2023-01-18T19:43:22.031Z,99064.88
2023-01-18T19:45:52.848Z,99070.06
2023-01-18T19:48:25.628Z,99072.47
2023-01-18T19:51:10.213Z,99064.09
2023-01-18T19:53:47.008Z,99058.06
2023-01-18T19:56:16.004Z,99054.47
2023-01-18T19:58:44.820Z,99060.16
2023-01-18T20:01:30.034Z,99053.69
2023-01-18T20:04:05.874Z,99058.91
2023-01-18T20:06:40.115Z,99040.03
2023-01-18T20:09:18.495Z,99046.91
2023-01-18T20:11:50.076Z,99043.72
2023-01-18T20:14:19.503Z,99038.88
2023-01-18T20:16:53.035Z,99040.50
2023-01-18T20:19:24.124Z,99044.16
2023-01-18T20:21:54.400Z,99038.88
2023-01-18T20:24:27.469Z,99041.28
2023-01-18T20:27:14.865Z,99040.09
2023-01-18T20:29:46.620Z,99052.84
2023-01-18T20:32:17.946Z,99039.72
2023-01-18T20:34:50.804Z,99045.09
2023-01-18T20:37:18.632Z,99035.00
2023-01-18T20:39:47.285Z,99045.09
2023-01-18T20:42:20.891Z,99043.88
2023-01-18T20:44:54.650Z,99037.06
2023-01-18T20:47:31.039Z,99047.09
2023-01-18T20:50:01.179Z,99057.53
2023-01-18T20:52:37.037Z,99063.50
2023-01-18T20:55:05.242Z,99058.66
2023-01-18T20:57:35.778Z,99075.94
2023-01-18T21:00:06.353Z,99068.75
2023-01-18T21:02:36.731Z,99070.41
2023-01-18T21:05:07.832Z,99069.22
2023-01-18T21:07:40.211Z,99064.81
2023-01-18T21:10:10.871Z,99073.56
2023-01-18T21:12:44.435Z,99076.06
2023-01-18T21:15:14.835Z,99068.00
2023-01-18T21:17:50.111Z,99076.13
2023-01-18T21:20:20.606Z,99070.91
2023-01-18T21:22:49.010Z,99062.81
2023-01-18T21:25:16.784Z,99063.16
2023-01-18T21:27:46.849Z,99064.34
2023-01-18T21:30:20.431Z,99060.78
2023-01-18T21:32:53.696Z,99060.34
2023-01-18T21:35:22.137Z,99057.13
2023-01-18T21:37:56.543Z,99057.13
2023-01-18T21:40:27.248Z,99066.34
2023-01-18T21:43:16.449Z,99068.78
2023-01-18T21:45:55.981Z,99074.81
2023-01-18T21:48:28.170Z,99069.97
2023-01-18T21:51:21.405Z,99073.63
2023-01-18T21:54:10.491Z,99068.84
2023-01-18T21:56:40.477Z,99071.25
2023-01-18T21:59:08.271Z,99066.81
2023-01-18T22:01:47.576Z,99076.06
2023-01-18T22:04:36.818Z,99077.63
2023-01-18T22:07:05.038Z,99090.38
2023-01-18T22:09:39.332Z,99089.84
2023-01-18T22:12:07.100Z,99097.28
2023-01-18T22:14:39.450Z,99101.09
2023-01-18T22:17:13.341Z,99088.03
2023-01-18T22:19:43.972Z,99091.50
2023-01-18T22:22:13.090Z,99105.44
2023-01-18T22:24:43.770Z,99105.56
2023-01-18T22:27:16.989Z,99104.53
2023-01-18T22:29:49.964Z,99103.72
2023-01-18T22:32:21.649Z,99101.41
2023-01-18T22:34:53.413Z,99103.28
2023-01-18T22:37:22.109Z,99106.84
2023-01-18T22:39:52.924Z,99106.53
2023-01-18T22:42:24.564Z,99106.75
2023-01-18T22:44:57.089Z,99105.09
2023-01-18T22:47:28.130Z,99109.41
2023-01-18T22:49:55.515Z,99104.28
2023-01-18T22:52:26.097Z,99108.22
2023-01-18T22:54:53.473Z,99098.69
2023-01-18T22:57:23.822Z,99097.59
2023-01-18T22:59:51.575Z,99094.03
2023-01-18T23:02:21.845Z,99096.94
2023-01-18T23:04:49.611Z,99102.06
2023-01-18T23:07:17.548Z,99097.00
2023-01-18T23:09:47.373Z,99096.16
2023-01-18T23:12:17.890Z,99094.69
2023-01-18T23:15:04.721Z,99100.38
2023-01-18T23:17:42.776Z,99106.00
2023-01-18T23:20:16.231Z,99103.94
2023-01-18T23:22:49.615Z,99108.88
2023-01-18T23:25:17.070Z,99110.09
2023-01-18T23:27:45.258Z,99101.00
2023-01-18T23:30:15.883Z,99093.44
2023-01-18T23:32:46.478Z,99095.44
2023-01-18T23:35:19.341Z,99093.69
2023-01-18T23:37:46.885Z,99103.38
2023-01-18T23:40:35.876Z,99098.59
2023-01-18T23:43:22.379Z,99103.81
2023-01-18T23:46:11.210Z,99106.69
2023-01-18T23:48:57.540Z,99107.91
2023-01-18T23:51:46.164Z,99113.19
2023-01-18T23:54:22.459Z,99117.19
2023-01-18T23:56:52.777Z,99115.22
2023-01-18T23:59:25.719Z,99120.00
